sensor_id;sensor_type;location;lat;lon;timestamp;P1;durP1;ratioP1;P2;durP2;ratioP2
40511;SDS011;26213;52.446;20.706;2022-11-06T00:02:19;21.60;;;11.98;;
40511;SDS011;26213;52.446;20.706;2022-11-06T00:04:44;26.65;;;12.60;;
40511;SDS011;26213;52.446;20.706;2022-11-06T00:07:10;29.50;;;13.13;;
40511;SDS011;26213;52.446;20.706;2022-11-06T00:09:35;29.88;;;12.70;;
40511;SDS011;26213;52.446;20.706;2022-11-06T00:12:01;27.42;;;13.32;;
40511;SDS011;26213;52.446;20.706;2022-11-06T00:14:26;34.20;;;12.40;;
40511;SDS011;26213;52.446;20.706;2022-11-06T00:16:52;25.08;;;11.95;;
40511;SDS011;26213;52.446;20.706;2022-11-06T00:19:17;23.33;;;11.82;;
40511;SDS011;26213;52.446;20.706;2022-11-06T00:21:43;29.17;;;12.65;;
40511;SDS011;26213;52.446;20.706;2022-11-06T00:24:09;25.25;;;12.93;;
40511;SDS011;26213;52.446;20.706;2022-11-06T00:26:36;36.83;;;12.00;;
40511;SDS011;26213;52.446;20.706;2022-11-06T00:29:02;26.73;;;13.38;;
40511;SDS011;26213;52.446;20.706;2022-11-06T00:31:29;30.17;;;13.45;;
40511;SDS011;26213;52.446;20.706;2022-11-06T00:33:57;29.67;;;12.90;;
40511;SDS011;26213;52.446;20.706;2022-11-06T00:36:23;37.05;;;12.45;;
40511;SDS011;26213;52.446;20.706;2022-11-06T00:38:50;19.80;;;11.82;;
40511;SDS011;26213;52.446;20.706;2022-11-06T00:41:19;24.33;;;11.60;;
40511;SDS011;26213;52.446;20.706;2022-11-06T00:43:48;21.00;;;12.30;;
40511;SDS011;26213;52.446;20.706;2022-11-06T00:46:15;31.55;;;12.77;;
40511;SDS011;26213;52.446;20.706;2022-11-06T00:48:41;24.92;;;12.63;;
40511;SDS011;26213;52.446;20.706;2022-11-06T00:51:16;30.27;;;11.68;;
40511;SDS011;26213;52.446;20.706;2022-11-06T00:53:43;28.42;;;13.27;;
40511;SDS011;26213;52.446;20.706;2022-11-06T00:56:13;31.60;;;13.07;;
40511;SDS011;26213;52.446;20.706;2022-11-06T00:58:40;23.33;;;11.85;;
40511;SDS011;26213;52.446;20.706;2022-11-06T01:01:10;24.83;;;12.77;;
40511;SDS011;26213;52.446;20.706;2022-11-06T01:03:38;22.90;;;12.02;;
40511;SDS011;26213;52.446;20.706;2022-11-06T01:06:14;21.27;;;12.43;;
40511;SDS011;26213;52.446;20.706;2022-11-06T01:08:43;26.15;;;13.90;;
40511;SDS011;26213;52.446;20.706;2022-11-06T01:11:17;31.90;;;13.73;;
40511;SDS011;26213;52.446;20.706;2022-11-06T01:13:55;29.45;;;15.85;;
40511;SDS011;26213;52.446;20.706;2022-11-06T01:16:22;25.40;;;12.68;;
40511;SDS011;26213;52.446;20.706;2022-11-06T01:18:48;26.10;;;13.90;;
40511;SDS011;26213;52.446;20.706;2022-11-06T01:21:16;30.45;;;13.52;;
40511;SDS011;26213;52.446;20.706;2022-11-06T01:23:43;28.45;;;13.88;;
40511;SDS011;26213;52.446;20.706;2022-11-06T01:26:09;23.50;;;13.43;;
40511;SDS011;26213;52.446;20.706;2022-11-06T01:28:37;33.83;;;14.02;;
40511;SDS011;26213;52.446;20.706;2022-11-06T01:31:03;28.92;;;13.60;;
40511;SDS011;26213;52.446;20.706;2022-11-06T01:33:33;25.90;;;11.73;;
40511;SDS011;26213;52.446;20.706;2022-11-06T01:35:58;27.60;;;13.10;;
40511;SDS011;26213;52.446;20.706;2022-11-06T01:38:24;27.52;;;13.13;;
40511;SDS011;26213;52.446;20.706;2022-11-06T01:40:49;26.30;;;12.45;;
40511;SDS011;26213;52.446;20.706;2022-11-06T01:43:19;30.33;;;12.75;;
40511;SDS011;26213;52.446;20.706;2022-11-06T01:45:47;20.95;;;11.35;;
40511;SDS011;26213;52.446;20.706;2022-11-06T01:48:14;27.45;;;15.13;;
40511;SDS011;26213;52.446;20.706;2022-11-06T01:50:41;28.20;;;13.95;;
40511;SDS011;26213;52.446;20.706;2022-11-06T01:53:08;24.20;;;12.52;;
40511;SDS011;26213;52.446;20.706;2022-11-06T01:55:36;31.67;;;12.55;;
40511;SDS011;26213;52.446;20.706;2022-11-06T01:58:04;25.13;;;12.13;;
40511;SDS011;26213;52.446;20.706;2022-11-06T02:00:31;26.42;;;12.55;;
40511;SDS011;26213;52.446;20.706;2022-11-06T02:02:57;25.85;;;11.57;;
40511;SDS011;26213;52.446;20.706;2022-11-06T02:05:22;30.42;;;12.35;;
40511;SDS011;26213;52.446;20.706;2022-11-06T02:07:48;30.27;;;12.95;;
40511;SDS011;26213;52.446;20.706;2022-11-06T02:10:15;27.88;;;10.85;;
40511;SDS011;26213;52.446;20.706;2022-11-06T02:12:44;22.05;;;11.48;;
40511;SDS011;26213;52.446;20.706;2022-11-06T02:15:13;21.90;;;9.95;;
40511;SDS011;26213;52.446;20.706;2022-11-06T02:20:36;27.20;;;10.15;;
40511;SDS011;26213;52.446;20.706;2022-11-06T02:23:29;27.35;;;12.02;;
40511;SDS011;26213;52.446;20.706;2022-11-06T02:31:58;22.88;;;11.35;;
40511;SDS011;26213;52.446;20.706;2022-11-06T02:34:24;25.23;;;12.18;;
40511;SDS011;26213;52.446;20.706;2022-11-06T02:36:54;30.58;;;13.38;;
40511;SDS011;26213;52.446;20.706;2022-11-06T02:39:23;31.85;;;12.48;;
40511;SDS011;26213;52.446;20.706;2022-11-06T02:41:50;25.48;;;11.40;;
40511;SDS011;26213;52.446;20.706;2022-11-06T02:44:18;25.98;;;11.10;;
40511;SDS011;26213;52.446;20.706;2022-11-06T02:46:48;31.42;;;11.52;;
40511;SDS011;26213;52.446;20.706;2022-11-06T02:51:52;28.55;;;12.57;;
40511;SDS011;26213;52.446;20.706;2022-11-06T02:54:21;32.67;;;12.88;;
40511;SDS011;26213;52.446;20.706;2022-11-06T02:56:48;25.40;;;10.57;;
40511;SDS011;26213;52.446;20.706;2022-11-06T02:59:22;24.75;;;12.35;;
40511;SDS011;26213;52.446;20.706;2022-11-06T03:01:59;25.85;;;12.20;;
40511;SDS011;26213;52.446;20.706;2022-11-06T03:09:52;23.23;;;10.93;;
40511;SDS011;26213;52.446;20.706;2022-11-06T03:12:28;26.95;;;12.65;;
40511;SDS011;26213;52.446;20.706;2022-11-06T03:14:57;25.27;;;12.55;;
40511;SDS011;26213;52.446;20.706;2022-11-06T03:20:22;22.85;;;11.70;;
40511;SDS011;26213;52.446;20.706;2022-11-06T03:25:34;23.67;;;10.88;;
40511;SDS011;26213;52.446;20.706;2022-11-06T03:28:07;22.05;;;11.35;;
40511;SDS011;26213;52.446;20.706;2022-11-06T03:30:56;24.90;;;11.25;;
40511;SDS011;26213;52.446;20.706;2022-11-06T03:36:51;26.95;;;12.73;;
40511;SDS011;26213;52.446;20.706;2022-11-06T03:39:08;24.00;;;12.13;;
40511;SDS011;26213;52.446;20.706;2022-11-06T03:41:44;33.70;;;18.80;;
40511;SDS011;26213;52.446;20.706;2022-11-06T03:44:13;27.45;;;14.57;;
40511;SDS011;26213;52.446;20.706;2022-11-06T03:46:42;26.77;;;13.40;;
40511;SDS011;26213;52.446;20.706;2022-11-06T03:49:12;19.63;;;11.15;;
40511;SDS011;26213;52.446;20.706;2022-11-06T03:51:51;20.48;;;11.65;;
40511;SDS011;26213;52.446;20.706;2022-11-06T03:54:21;23.80;;;13.63;;
40511;SDS011;26213;52.446;20.706;2022-11-06T03:56:51;26.55;;;12.10;;
40511;SDS011;26213;52.446;20.706;2022-11-06T03:59:21;23.40;;;11.10;;
40511;SDS011;26213;52.446;20.706;2022-11-06T04:01:49;31.10;;;16.50;;
40511;SDS011;26213;52.446;20.706;2022-11-06T04:04:19;23.88;;;13.07;;
40511;SDS011;26213;52.446;20.706;2022-11-06T04:06:50;26.40;;;11.10;;
40511;SDS011;26213;52.446;20.706;2022-11-06T04:09:23;22.10;;;11.48;;
40511;SDS011;26213;52.446;20.706;2022-11-06T04:12:09;22.05;;;9.75;;
40511;SDS011;26213;52.446;20.706;2022-11-06T04:14:55;21.80;;;10.32;;
40511;SDS011;26213;52.446;20.706;2022-11-06T04:17:22;20.10;;;10.38;;
40511;SDS011;26213;52.446;20.706;2022-11-06T04:19:48;37.58;;;11.70;;
40511;SDS011;26213;52.446;20.706;2022-11-06T04:22:31;20.58;;;11.45;;
40511;SDS011;26213;52.446;20.706;2022-11-06T04:33:48;23.02;;;11.07;;
40511;SDS011;26213;52.446;20.706;2022-11-06T04:39:04;27.77;;;14.05;;
40511;SDS011;26213;52.446;20.706;2022-11-06T04:41:38;28.65;;;15.05;;
40511;SDS011;26213;52.446;20.706;2022-11-06T04:47:00;40.60;;;21.90;;
40511;SDS011;26213;52.446;20.706;2022-11-06T04:49:29;28.90;;;17.95;;
40511;SDS011;26213;52.446;20.706;2022-11-06T04:51:55;27.92;;;17.92;;
40511;SDS011;26213;52.446;20.706;2022-11-06T04:54:22;27.65;;;15.90;;
40511;SDS011;26213;52.446;20.706;2022-11-06T04:56:48;27.23;;;15.38;;
40511;SDS011;26213;52.446;20.706;2022-11-06T04:59:14;24.73;;;14.60;;
40511;SDS011;26213;52.446;20.706;2022-11-06T05:01:41;27.48;;;13.52;;
40511;SDS011;26213;52.446;20.706;2022-11-06T05:04:07;22.40;;;13.25;;
40511;SDS011;26213;52.446;20.706;2022-11-06T05:06:32;24.27;;;12.70;;
40511;SDS011;26213;52.446;20.706;2022-11-06T05:08:58;25.10;;;14.30;;
40511;SDS011;26213;52.446;20.706;2022-11-06T05:11:25;24.25;;;13.27;;
40511;SDS011;26213;52.446;20.706;2022-11-06T05:13:50;33.10;;;14.27;;
40511;SDS011;26213;52.446;20.706;2022-11-06T05:16:16;19.90;;;12.32;;
40511;SDS011;26213;52.446;20.706;2022-11-06T05:18:41;27.67;;;15.40;;
40511;SDS011;26213;52.446;20.706;2022-11-06T05:21:06;18.90;;;11.50;;
40511;SDS011;26213;52.446;20.706;2022-11-06T05:23:50;20.88;;;13.70;;
40511;SDS011;26213;52.446;20.706;2022-11-06T05:26:16;23.45;;;15.23;;
40511;SDS011;26213;52.446;20.706;2022-11-06T05:28:41;32.80;;;17.65;;
40511;SDS011;26213;52.446;20.706;2022-11-06T05:31:08;26.63;;;13.52;;
40511;SDS011;26213;52.446;20.706;2022-11-06T05:33:33;28.23;;;13.93;;
40511;SDS011;26213;52.446;20.706;2022-11-06T05:36:02;41.58;;;21.85;;
40511;SDS011;26213;52.446;20.706;2022-11-06T05:38:28;30.83;;;16.98;;
40511;SDS011;26213;52.446;20.706;2022-11-06T05:40:54;49.58;;;22.48;;
40511;SDS011;26213;52.446;20.706;2022-11-06T05:43:19;28.15;;;15.35;;
40511;SDS011;26213;52.446;20.706;2022-11-06T05:45:45;30.10;;;17.23;;
40511;SDS011;26213;52.446;20.706;2022-11-06T05:48:10;29.95;;;18.17;;
40511;SDS011;26213;52.446;20.706;2022-11-06T05:50:35;57.42;;;26.17;;
40511;SDS011;26213;52.446;20.706;2022-11-06T05:53:01;42.92;;;21.88;;
40511;SDS011;26213;52.446;20.706;2022-11-06T05:55:26;57.08;;;25.77;;
40511;SDS011;26213;52.446;20.706;2022-11-06T05:57:52;41.25;;;22.58;;
40511;SDS011;26213;52.446;20.706;2022-11-06T06:00:17;73.40;;;36.55;;
40511;SDS011;26213;52.446;20.706;2022-11-06T06:02:43;56.65;;;28.58;;
40511;SDS011;26213;52.446;20.706;2022-11-06T06:05:08;65.70;;;30.55;;
40511;SDS011;26213;52.446;20.706;2022-11-06T06:07:34;98.88;;;22.70;;
40511;SDS011;26213;52.446;20.706;2022-11-06T06:09:59;62.63;;;27.30;;
40511;SDS011;26213;52.446;20.706;2022-11-06T06:12:25;79.97;;;35.83;;
40511;SDS011;26213;52.446;20.706;2022-11-06T06:14:51;54.45;;;16.80;;
40511;SDS011;26213;52.446;20.706;2022-11-06T06:17:17;44.97;;;16.00;;
40511;SDS011;26213;52.446;20.706;2022-11-06T06:19:43;83.32;;;17.15;;
40511;SDS011;26213;52.446;20.706;2022-11-06T06:22:08;112.72;;;19.90;;
40511;SDS011;26213;52.446;20.706;2022-11-06T06:24:34;114.15;;;22.45;;
40511;SDS011;26213;52.446;20.706;2022-11-06T06:26:59;151.27;;;27.38;;
40511;SDS011;26213;52.446;20.706;2022-11-06T06:29:25;143.75;;;28.65;;
40511;SDS011;26213;52.446;20.706;2022-11-06T06:31:50;192.15;;;32.55;;
40511;SDS011;26213;52.446;20.706;2022-11-06T06:34:16;177.13;;;35.55;;
40511;SDS011;26213;52.446;20.706;2022-11-06T06:36:41;199.00;;;31.60;;
40511;SDS011;26213;52.446;20.706;2022-11-06T06:39:07;158.25;;;32.67;;
40511;SDS011;26213;52.446;20.706;2022-11-06T06:41:32;156.27;;;33.70;;
40511;SDS011;26213;52.446;20.706;2022-11-06T06:43:58;129.48;;;29.83;;
40511;SDS011;26213;52.446;20.706;2022-11-06T06:46:23;167.60;;;31.95;;
40511;SDS011;26213;52.446;20.706;2022-11-06T06:48:48;129.50;;;26.50;;
40511;SDS011;26213;52.446;20.706;2022-11-06T06:51:14;89.90;;;21.63;;
40511;SDS011;26213;52.446;20.706;2022-11-06T06:53:39;57.10;;;20.30;;
40511;SDS011;26213;52.446;20.706;2022-11-06T06:56:05;168.45;;;28.40;;
40511;SDS011;26213;52.446;20.706;2022-11-06T06:58:31;212.60;;;30.30;;
40511;SDS011;26213;52.446;20.706;2022-11-06T07:00:58;205.83;;;42.40;;
40511;SDS011;26213;52.446;20.706;2022-11-06T07:03:26;214.60;;;45.05;;
40511;SDS011;26213;52.446;20.706;2022-11-06T07:05:52;151.38;;;43.55;;
40511;SDS011;26213;52.446;20.706;2022-11-06T07:08:18;172.48;;;35.42;;
40511;SDS011;26213;52.446;20.706;2022-11-06T07:10:43;154.00;;;33.72;;
40511;SDS011;26213;52.446;20.706;2022-11-06T07:13:09;122.28;;;33.78;;
40511;SDS011;26213;52.446;20.706;2022-11-06T07:15:34;171.68;;;26.35;;
40511;SDS011;26213;52.446;20.706;2022-11-06T07:18:00;124.22;;;21.85;;
40511;SDS011;26213;52.446;20.706;2022-11-06T07:20:34;180.65;;;28.30;;
40511;SDS011;26213;52.446;20.706;2022-11-06T07:23:06;184.45;;;33.13;;
40511;SDS011;26213;52.446;20.706;2022-11-06T07:25:32;210.88;;;45.70;;
40511;SDS011;26213;52.446;20.706;2022-11-06T07:27:59;164.73;;;38.53;;
40511;SDS011;26213;52.446;20.706;2022-11-06T07:30:26;105.22;;;26.73;;
40511;SDS011;26213;52.446;20.706;2022-11-06T07:32:51;84.18;;;23.15;;
40511;SDS011;26213;52.446;20.706;2022-11-06T07:35:17;121.70;;;26.17;;
40511;SDS011;26213;52.446;20.706;2022-11-06T07:37:42;105.10;;;20.67;;
40511;SDS011;26213;52.446;20.706;2022-11-06T07:40:08;87.90;;;26.63;;
40511;SDS011;26213;52.446;20.706;2022-11-06T07:42:34;108.82;;;39.08;;
40511;SDS011;26213;52.446;20.706;2022-11-06T07:44:59;93.05;;;34.50;;
40511;SDS011;26213;52.446;20.706;2022-11-06T07:47:25;63.17;;;22.30;;
40511;SDS011;26213;52.446;20.706;2022-11-06T07:49:51;57.47;;;22.15;;
40511;SDS011;26213;52.446;20.706;2022-11-06T07:52:17;61.55;;;21.33;;
40511;SDS011;26213;52.446;20.706;2022-11-06T07:54:42;49.00;;;18.48;;
40511;SDS011;26213;52.446;20.706;2022-11-06T07:57:08;41.33;;;15.30;;
40511;SDS011;26213;52.446;20.706;2022-11-06T07:59:33;46.67;;;14.95;;
40511;SDS011;26213;52.446;20.706;2022-11-06T08:01:59;39.30;;;14.35;;
40511;SDS011;26213;52.446;20.706;2022-11-06T08:04:24;122.05;;;21.88;;
40511;SDS011;26213;52.446;20.706;2022-11-06T08:06:49;96.28;;;24.40;;
40511;SDS011;26213;52.446;20.706;2022-11-06T08:09:15;138.10;;;26.67;;
40511;SDS011;26213;52.446;20.706;2022-11-06T08:11:40;61.53;;;14.40;;
40511;SDS011;26213;52.446;20.706;2022-11-06T08:14:06;83.30;;;19.80;;
40511;SDS011;26213;52.446;20.706;2022-11-06T08:16:31;38.25;;;17.92;;
40511;SDS011;26213;52.446;20.706;2022-11-06T08:18:57;74.10;;;15.55;;
40511;SDS011;26213;52.446;20.706;2022-11-06T08:21:22;45.83;;;16.42;;
40511;SDS011;26213;52.446;20.706;2022-11-06T08:23:48;30.63;;;15.25;;
40511;SDS011;26213;52.446;20.706;2022-11-06T08:26:13;49.50;;;17.35;;
40511;SDS011;26213;52.446;20.706;2022-11-06T08:28:39;99.55;;;17.75;;
40511;SDS011;26213;52.446;20.706;2022-11-06T08:31:05;30.17;;;12.45;;
40511;SDS011;26213;52.446;20.706;2022-11-06T08:33:31;29.80;;;12.50;;
40511;SDS011;26213;52.446;20.706;2022-11-06T08:36:01;50.55;;;15.15;;
40511;SDS011;26213;52.446;20.706;2022-11-06T08:38:30;170.57;;;17.63;;
40511;SDS011;26213;52.446;20.706;2022-11-06T08:40:55;73.63;;;13.43;;
40511;SDS011;26213;52.446;20.706;2022-11-06T08:43:21;35.15;;;15.00;;
40511;SDS011;26213;52.446;20.706;2022-11-06T08:45:51;28.10;;;11.90;;
40511;SDS011;26213;52.446;20.706;2022-11-06T08:48:17;75.47;;;15.70;;
40511;SDS011;26213;52.446;20.706;2022-11-06T08:50:42;41.60;;;12.68;;
40511;SDS011;26213;52.446;20.706;2022-11-06T08:53:08;48.50;;;13.35;;
40511;SDS011;26213;52.446;20.706;2022-11-06T08:55:36;81.00;;;13.63;;
40511;SDS011;26213;52.446;20.706;2022-11-06T08:58:03;95.57;;;16.27;;
40511;SDS011;26213;52.446;20.706;2022-11-06T09:00:29;37.25;;;11.73;;
40511;SDS011;26213;52.446;20.706;2022-11-06T09:02:59;79.32;;;17.40;;
40511;SDS011;26213;52.446;20.706;2022-11-06T09:05:26;23.83;;;12.23;;
40511;SDS011;26213;52.446;20.706;2022-11-06T09:07:52;28.33;;;12.38;;
40511;SDS011;26213;52.446;20.706;2022-11-06T09:10:18;33.78;;;15.40;;
40511;SDS011;26213;52.446;20.706;2022-11-06T09:12:44;37.55;;;12.82;;
40511;SDS011;26213;52.446;20.706;2022-11-06T09:15:09;31.33;;;14.10;;
40511;SDS011;26213;52.446;20.706;2022-11-06T09:17:44;39.78;;;11.15;;
40511;SDS011;26213;52.446;20.706;2022-11-06T09:20:11;33.92;;;15.10;;
40511;SDS011;26213;52.446;20.706;2022-11-06T09:22:38;56.28;;;22.83;;
40511;SDS011;26213;52.446;20.706;2022-11-06T09:25:04;44.10;;;13.95;;
40511;SDS011;26213;52.446;20.706;2022-11-06T09:27:30;32.88;;;12.95;;
40511;SDS011;26213;52.446;20.706;2022-11-06T09:29:56;35.97;;;20.55;;
40511;SDS011;26213;52.446;20.706;2022-11-06T09:32:22;35.35;;;12.77;;
40511;SDS011;26213;52.446;20.706;2022-11-06T09:34:48;40.63;;;14.95;;
40511;SDS011;26213;52.446;20.706;2022-11-06T09:37:14;25.25;;;11.40;;
40511;SDS011;26213;52.446;20.706;2022-11-06T09:39:40;37.22;;;16.42;;
40511;SDS011;26213;52.446;20.706;2022-11-06T09:42:15;53.92;;;16.60;;
40511;SDS011;26213;52.446;20.706;2022-11-06T09:47:28;37.45;;;17.88;;
40511;SDS011;26213;52.446;20.706;2022-11-06T09:49:58;37.47;;;18.60;;
40511;SDS011;26213;52.446;20.706;2022-11-06T09:52:32;38.47;;;19.30;;
40511;SDS011;26213;52.446;20.706;2022-11-06T09:55:00;31.27;;;14.23;;
40511;SDS011;26213;52.446;20.706;2022-11-06T10:00:11;49.10;;;18.15;;
40511;SDS011;26213;52.446;20.706;2022-11-06T10:05:13;18.50;;;13.25;;
40511;SDS011;26213;52.446;20.706;2022-11-06T10:07:40;23.15;;;14.15;;
40511;SDS011;26213;52.446;20.706;2022-11-06T10:10:10;22.90;;;15.45;;
40511;SDS011;26213;52.446;20.706;2022-11-06T10:13:01;18.75;;;13.93;;
40511;SDS011;26213;52.446;20.706;2022-11-06T10:15:32;20.92;;;13.85;;
40511;SDS011;26213;52.446;20.706;2022-11-06T10:20:29;18.10;;;12.75;;
40511;SDS011;26213;52.446;20.706;2022-11-06T10:28:39;14.98;;;11.52;;
40511;SDS011;26213;52.446;20.706;2022-11-06T10:37:13;20.75;;;13.27;;
40511;SDS011;26213;52.446;20.706;2022-11-06T10:39:22;17.83;;;12.23;;
40511;SDS011;26213;52.446;20.706;2022-11-06T10:41:52;18.60;;;13.68;;
40511;SDS011;26213;52.446;20.706;2022-11-06T10:44:27;16.13;;;12.05;;
40511;SDS011;26213;52.446;20.706;2022-11-06T10:47:14;19.58;;;12.40;;
40511;SDS011;26213;52.446;20.706;2022-11-06T10:49:50;17.52;;;12.30;;
40511;SDS011;26213;52.446;20.706;2022-11-06T11:00:28;21.87;;;14.50;;
40511;SDS011;26213;52.446;20.706;2022-11-06T11:02:58;22.98;;;14.15;;
40511;SDS011;26213;52.446;20.706;2022-11-06T11:05:26;18.33;;;13.13;;
40511;SDS011;26213;52.446;20.706;2022-11-06T11:08:02;24.80;;;13.52;;
40511;SDS011;26213;52.446;20.706;2022-11-06T11:10:30;19.85;;;13.43;;
40511;SDS011;26213;52.446;20.706;2022-11-06T11:13:00;18.67;;;12.93;;
40511;SDS011;26213;52.446;20.706;2022-11-06T11:15:31;13.93;;;11.52;;
40511;SDS011;26213;52.446;20.706;2022-11-06T11:18:25;18.80;;;12.90;;
40511;SDS011;26213;52.446;20.706;2022-11-06T11:21:05;20.92;;;14.25;;
40511;SDS011;26213;52.446;20.706;2022-11-06T11:23:36;17.88;;;12.82;;
40511;SDS011;26213;52.446;20.706;2022-11-06T11:28:45;15.25;;;10.52;;
40511;SDS011;26213;52.446;20.706;2022-11-06T11:31:28;18.10;;;11.05;;
40511;SDS011;26213;52.446;20.706;2022-11-06T11:33:55;14.80;;;9.90;;
40511;SDS011;26213;52.446;20.706;2022-11-06T11:36:24;15.98;;;11.77;;
40511;SDS011;26213;52.446;20.706;2022-11-06T11:38:52;15.70;;;11.05;;
40511;SDS011;26213;52.446;20.706;2022-11-06T11:46:51;18.42;;;12.07;;
40511;SDS011;26213;52.446;20.706;2022-11-06T11:49:30;15.85;;;11.18;;
40511;SDS011;26213;52.446;20.706;2022-11-06T11:52:02;15.75;;;12.10;;
40511;SDS011;26213;52.446;20.706;2022-11-06T11:54:32;16.40;;;11.00;;
40511;SDS011;26213;52.446;20.706;2022-11-06T11:57:10;18.17;;;11.02;;
40511;SDS011;26213;52.446;20.706;2022-11-06T11:59:46;15.93;;;12.35;;
40511;SDS011;26213;52.446;20.706;2022-11-06T12:04:44;24.90;;;14.65;;
40511;SDS011;26213;52.446;20.706;2022-11-06T12:07:21;22.90;;;13.52;;
40511;SDS011;26213;52.446;20.706;2022-11-06T12:10:02;19.92;;;13.18;;
40511;SDS011;26213;52.446;20.706;2022-11-06T12:12:52;30.85;;;10.98;;
40511;SDS011;26213;52.446;20.706;2022-11-06T12:15:21;18.95;;;9.68;;
40511;SDS011;26213;52.446;20.706;2022-11-06T12:18:16;18.23;;;9.65;;
40511;SDS011;26213;52.446;20.706;2022-11-06T12:21:03;19.00;;;12.88;;
40511;SDS011;26213;52.446;20.706;2022-11-06T12:26:28;17.13;;;10.32;;
40511;SDS011;26213;52.446;20.706;2022-11-06T12:29:12;18.23;;;10.85;;
40511;SDS011;26213;52.446;20.706;2022-11-06T12:31:46;17.33;;;9.95;;
40511;SDS011;26213;52.446;20.706;2022-11-06T12:34:39;21.05;;;14.00;;
40511;SDS011;26213;52.446;20.706;2022-11-06T12:40:16;16.90;;;12.07;;
40511;SDS011;26213;52.446;20.706;2022-11-06T12:42:54;19.77;;;11.77;;
40511;SDS011;26213;52.446;20.706;2022-11-06T12:48:29;15.93;;;10.40;;
40511;SDS011;26213;52.446;20.706;2022-11-06T12:51:06;16.15;;;11.35;;
40511;SDS011;26213;52.446;20.706;2022-11-06T12:54:00;15.68;;;9.63;;
40511;SDS011;26213;52.446;20.706;2022-11-06T13:01:56;23.00;;;15.52;;
40511;SDS011;26213;52.446;20.706;2022-11-06T13:04:39;18.45;;;10.05;;
40511;SDS011;26213;52.446;20.706;2022-11-06T13:12:56;19.55;;;11.07;;
40511;SDS011;26213;52.446;20.706;2022-11-06T13:18:56;16.80;;;10.95;;
40511;SDS011;26213;52.446;20.706;2022-11-06T13:24:24;17.55;;;9.55;;
40511;SDS011;26213;52.446;20.706;2022-11-06T13:29:47;18.85;;;9.68;;
40511;SDS011;26213;52.446;20.706;2022-11-06T13:32:16;16.40;;;10.13;;
40511;SDS011;26213;52.446;20.706;2022-11-06T13:34:47;14.43;;;8.80;;
40511;SDS011;26213;52.446;20.706;2022-11-06T13:37:21;16.55;;;9.95;;
40511;SDS011;26213;52.446;20.706;2022-11-06T13:40:15;19.27;;;11.70;;
40511;SDS011;26213;52.446;20.706;2022-11-06T13:42:48;23.50;;;10.80;;
40511;SDS011;26213;52.446;20.706;2022-11-06T13:45:18;15.60;;;9.13;;
40511;SDS011;26213;52.446;20.706;2022-11-06T13:50:19;13.30;;;8.65;;
40511;SDS011;26213;52.446;20.706;2022-11-06T13:52:55;17.85;;;8.35;;
40511;SDS011;26213;52.446;20.706;2022-11-06T13:55:27;14.05;;;8.43;;
40511;SDS011;26213;52.446;20.706;2022-11-06T14:06:41;21.55;;;10.68;;
40511;SDS011;26213;52.446;20.706;2022-11-06T14:09:20;19.55;;;10.93;;
40511;SDS011;26213;52.446;20.706;2022-11-06T14:11:53;18.52;;;11.60;;
40511;SDS011;26213;52.446;20.706;2022-11-06T14:17:08;114.95;;;57.40;;
40511;SDS011;26213;52.446;20.706;2022-11-06T14:22:16;40.20;;;18.48;;
40511;SDS011;26213;52.446;20.706;2022-11-06T14:24:51;29.60;;;15.98;;
40511;SDS011;26213;52.446;20.706;2022-11-06T14:34:55;18.60;;;10.20;;
40511;SDS011;26213;52.446;20.706;2022-11-06T14:44:57;26.65;;;14.00;;
40511;SDS011;26213;52.446;20.706;2022-11-06T14:55:29;99.30;;;36.95;;
40511;SDS011;26213;52.446;20.706;2022-11-06T14:58:18;101.38;;;41.05;;
40511;SDS011;26213;52.446;20.706;2022-11-06T15:09:05;135.10;;;54.80;;
40511;SDS011;26213;52.446;20.706;2022-11-06T15:19:03;120.75;;;54.33;;
40511;SDS011;26213;52.446;20.706;2022-11-06T15:31:37;184.88;;;83.25;;
40511;SDS011;26213;52.446;20.706;2022-11-06T15:34:04;173.50;;;74.50;;
40511;SDS011;26213;52.446;20.706;2022-11-06T15:36:36;152.18;;;69.65;;
40511;SDS011;26213;52.446;20.706;2022-11-06T15:42:07;125.15;;;53.03;;
40511;SDS011;26213;52.446;20.706;2022-11-06T15:44:36;98.53;;;42.43;;
40511;SDS011;26213;52.446;20.706;2022-11-06T15:47:03;91.55;;;46.45;;
40511;SDS011;26213;52.446;20.706;2022-11-06T15:49:29;82.35;;;43.65;;
40511;SDS011;26213;52.446;20.706;2022-11-06T15:51:58;83.70;;;43.10;;
40511;SDS011;26213;52.446;20.706;2022-11-06T15:57:02;74.53;;;37.97;;
40511;SDS011;26213;52.446;20.706;2022-11-06T15:59:39;104.75;;;50.85;;
40511;SDS011;26213;52.446;20.706;2022-11-06T16:02:15;132.40;;;52.97;;
40511;SDS011;26213;52.446;20.706;2022-11-06T16:04:43;85.35;;;37.42;;
40511;SDS011;26213;52.446;20.706;2022-11-06T16:07:10;123.10;;;48.72;;
40511;SDS011;26213;52.446;20.706;2022-11-06T16:09:36;139.30;;;51.55;;
40511;SDS011;26213;52.446;20.706;2022-11-06T16:12:04;182.88;;;68.03;;
40511;SDS011;26213;52.446;20.706;2022-11-06T16:14:31;238.75;;;75.10;;
40511;SDS011;26213;52.446;20.706;2022-11-06T16:16:56;263.40;;;84.68;;
40511;SDS011;26213;52.446;20.706;2022-11-06T16:19:34;154.65;;;60.00;;
40511;SDS011;26213;52.446;20.706;2022-11-06T16:22:04;119.88;;;47.28;;
40511;SDS011;26213;52.446;20.706;2022-11-06T16:24:37;111.28;;;47.83;;
40511;SDS011;26213;52.446;20.706;2022-11-06T16:27:04;113.22;;;51.42;;
40511;SDS011;26213;52.446;20.706;2022-11-06T16:29:32;97.65;;;40.78;;
40511;SDS011;26213;52.446;20.706;2022-11-06T16:32:08;139.73;;;58.67;;
40511;SDS011;26213;52.446;20.706;2022-11-06T16:34:40;75.07;;;36.38;;
40511;SDS011;26213;52.446;20.706;2022-11-06T16:39:44;71.65;;;36.03;;
40511;SDS011;26213;52.446;20.706;2022-11-06T16:49:35;87.97;;;42.63;;
40511;SDS011;26213;52.446;20.706;2022-11-06T16:52:15;115.82;;;54.72;;
40511;SDS011;26213;52.446;20.706;2022-11-06T16:57:42;230.88;;;103.93;;
40511;SDS011;26213;52.446;20.706;2022-11-06T17:00:25;219.23;;;109.28;;
40511;SDS011;26213;52.446;20.706;2022-11-06T17:02:52;273.55;;;131.23;;
40511;SDS011;26213;52.446;20.706;2022-11-06T17:05:24;162.35;;;84.13;;
40511;SDS011;26213;52.446;20.706;2022-11-06T17:08:07;165.00;;;89.10;;
40511;SDS011;26213;52.446;20.706;2022-11-06T17:10:45;141.32;;;81.72;;
40511;SDS011;26213;52.446;20.706;2022-11-06T17:18:24;128.65;;;78.72;;
40511;SDS011;26213;52.446;20.706;2022-11-06T17:20:53;107.35;;;68.40;;
40511;SDS011;26213;52.446;20.706;2022-11-06T17:23:20;127.38;;;75.93;;
40511;SDS011;26213;52.446;20.706;2022-11-06T17:25:46;126.13;;;70.55;;
40511;SDS011;26213;52.446;20.706;2022-11-06T17:28:12;100.45;;;56.17;;
40511;SDS011;26213;52.446;20.706;2022-11-06T17:30:42;74.15;;;43.35;;
40511;SDS011;26213;52.446;20.706;2022-11-06T17:33:08;108.70;;;47.63;;
40511;SDS011;26213;52.446;20.706;2022-11-06T17:35:33;69.43;;;37.17;;
40511;SDS011;26213;52.446;20.706;2022-11-06T17:37:59;201.20;;;42.80;;
40511;SDS011;26213;52.446;20.706;2022-11-06T17:40:24;90.78;;;37.25;;